Mount Storm, West Virginia
Current Conditions -  °F | °C
As of 2:55 PM on Sunday 21 Dec 2014 (Local Time) from KW99 Reporting Station
Clear Clear  
Wind Chill: 44°   Ceiling: Unl
Heat Index: 44°   Visibility: 10mi
Dew Point: 26°   Wind: 0mph
Humidity: 49%   Direction: NA
Pressure: 30.22"   Gusts: NA
Location:  39.28°N, 79.24°W
Report Text: KW99 211955Z AUTO 00000KT 10SM CLR 07/M03 A3022 RMK AO2 T00651035
Loading
Personal Weather Stations






























Interactive Weather Map New forecast layout! Learn more

10-Day Weather Forecast

Advertisements
Track Severe Weather on mobile